Time;durP1;ratioP1;P1;durP2;ratioP2;P2;SDS_P1;SDS_P2;PMS_P1;PMS_P2;Temp;Humidity;BMP_temperature;BMP_pressure;BME280_temperature;BME280_humidity;BME280_pressure;Samples;Min_cycle;Max_cycle;Signal;HPM_P1;HPM_P2
2023/03/17 00:01:04;;;;;;;9.90;3.35;;;;;;;;;;4969789;28;20150;-63
2023/03/17 00:03:36;;;;;;;10.15;3.25;;;;;;;;;;4968861;28;20418;-65
2023/03/17 00:06:03;;;;;;;;;;;;;;;;;;4970194;28;20022;-64
2023/03/17 00:08:30;;;;;;;7.72;2.72;;;;;;;;;;4968926;28;19926;-66
2023/03/17 00:10:55;;;;;;;8.73;2.90;;;;;;;;;;4973287;28;20023;-66
2023/03/17 00:13:21;;;;;;;8.47;3.13;;;;;;;;;;4973882;28;20426;-65
2023/03/17 00:15:49;;;;;;;8.75;3.30;;;;;;;;;;4969368;28;20049;-68
2023/03/17 00:18:16;;;;;;;9.45;3.20;;;;;;;;;;4972560;28;20508;-67
2023/03/17 00:20:41;;;;;;;7.90;3.30;;;;;;;;;;4973636;28;20030;-67
2023/03/17 00:23:10;;;;;;;7.30;2.80;;;;;;;;;;4970181;28;20061;-67
2023/03/17 00:25:35;;;;;;;8.57;3.10;;;;;;;;;;4971541;28;20065;-64
2023/03/17 00:28:02;;;;;;;8.60;3.60;;;;;;;;;;4971046;28;20023;-66
2023/03/17 00:30:27;;;;;;;10.98;3.45;;;;;;;;;;4962865;28;20165;-65
2023/03/17 00:32:54;;;;;;;7.95;3.53;;;;;;;;;;4973613;28;20027;-66
2023/03/17 00:35:21;;;;;;;11.68;3.42;;;;;;;;;;4971638;28;20027;-68
2023/03/17 00:37:47;;;;;;;10.60;3.67;;;;;;;;;;4968377;28;20041;-66
2023/03/17 00:40:20;;;;;;;10.63;3.28;;;;;;;;;;4972290;28;20566;-66
2023/03/17 00:42:45;;;;;;;7.97;3.05;;;;;;;;;;4972622;28;20034;-66
2023/03/17 00:45:11;;;;;;;9.63;3.70;;;;;;;;;;4970740;28;20042;-67
2023/03/17 00:47:37;;;;;;;9.57;3.33;;;;;;;;;;4970978;28;20485;-65
2023/03/17 00:50:03;;;;;;;9.05;3.30;;;;;;;;;;4972630;28;20081;-67
2023/03/17 00:52:28;;;;;;;9.93;3.80;;;;;;;;;;4969495;28;20451;-65
2023/03/17 00:54:54;;;;;;;8.48;3.60;;;;;;;;;;4973026;28;20023;-66
2023/03/17 00:57:19;;;;;;;10.70;3.43;;;;;;;;;;4968943;28;20019;-65
2023/03/17 00:59:44;;;;;;;8.35;3.22;;;;;;;;;;4970501;28;20031;-65
2023/03/17 01:02:10;;;;;;;8.63;3.60;;;;;;;;;;4970885;28;20015;-66
2023/03/17 01:04:35;;;;;;;8.63;3.20;;;;;;;;;;4971231;28;20022;-65
2023/03/17 01:07:01;;;;;;;10.20;3.00;;;;;;;;;;4968660;28;20395;-65
2023/03/17 01:09:26;;;;;;;10.32;3.38;;;;;;;;;;4970150;28;20038;-66
2023/03/17 01:11:52;;;;;;;10.83;3.20;;;;;;;;;;4971771;28;20027;-66
2023/03/17 01:14:17;;;;;;;9.48;3.47;;;;;;;;;;4971849;28;20480;-66
2023/03/17 01:16:43;;;;;;;10.23;3.60;;;;;;;;;;4968881;28;20038;-64
2023/03/17 01:19:09;;;;;;;11.18;3.80;;;;;;;;;;4969096;28;20110;-67
2023/03/17 01:21:34;;;;;;;11.02;3.40;;;;;;;;;;4971927;28;20146;-64
2023/03/17 01:24:00;;;;;;;8.80;3.35;;;;;;;;;;4970797;28;20054;-67
2023/03/17 01:26:25;;;;;;;9.35;3.30;;;;;;;;;;4969435;28;20026;-64
2023/03/17 01:28:50;;;;;;;9.87;3.60;;;;;;;;;;4974845;28;20023;-67
2023/03/17 01:31:16;;;;;;;8.73;3.17;;;;;;;;;;4974792;28;20027;-67
2023/03/17 01:33:41;;;;;;;10.70;3.38;;;;;;;;;;4974464;28;20031;-66
2023/03/17 01:36:06;;;;;;;11.88;3.60;;;;;;;;;;4967637;28;20390;-67
2023/03/17 01:38:31;;;;;;;10.70;3.10;;;;;;;;;;4980490;28;20027;-65
2023/03/17 01:40:57;;;;;;;8.02;3.10;;;;;;;;;;4972618;28;20478;-65
2023/03/17 01:43:27;;;;;;;8.50;3.03;;;;;;;;;;4972787;28;20082;-66
2023/03/17 01:46:14;;;;;;;9.40;3.22;;;;;;;;;;4971211;28;20030;-65
2023/03/17 01:49:04;;;;;;;9.35;2.95;;;;;;;;;;4969292;28;20050;-66
2023/03/17 01:51:32;;;;;;;9.63;3.30;;;;;;;;;;4960218;28;20042;-65
2023/03/17 01:53:58;;;;;;;11.85;3.22;;;;;;;;;;4969400;28;20027;-66
2023/03/17 01:56:24;;;;;;;8.15;3.08;;;;;;;;;;4972411;28;20218;-66
2023/03/17 01:58:51;;;;;;;9.45;3.13;;;;;;;;;;4969732;28;20168;-65
2023/03/17 02:01:16;;;;;;;;;;;;;;;;;;4974390;28;20027;-65
2023/03/17 02:03:42;;;;;;;7.90;3.20;;;;;;;;;;4974622;28;20301;-65
2023/03/17 02:06:08;;;;;;;8.43;3.15;;;;;;;;;;4974154;28;20501;-64
2023/03/17 02:08:33;;;;;;;7.78;2.75;;;;;;;;;;4969635;28;20027;-67
2023/03/17 02:10:58;;;;;;;7.68;2.97;;;;;;;;;;4974852;28;20019;-65
2023/03/17 02:13:23;;;;;;;8.27;2.97;;;;;;;;;;4972913;28;20022;-64
2023/03/17 02:15:49;;;;;;;9.33;3.00;;;;;;;;;;4970852;28;20022;-66
2023/03/17 02:18:16;;;;;;;9.40;3.10;;;;;;;;;;4972940;28;20033;-67
2023/03/17 02:20:47;;;;;;;9.60;2.78;;;;;;;;;;4968357;28;20066;-67
2023/03/17 02:23:16;;;;;;;7.93;2.95;;;;;;;;;;4968977;28;20025;-65
2023/03/17 02:25:43;;;;;;;10.18;3.10;;;;;;;;;;4970897;28;20025;-65
2023/03/17 02:28:12;;;;;;;8.57;3.20;;;;;;;;;;4970191;28;20073;-68
2023/03/17 02:30:37;;;;;;;8.50;2.72;;;;;;;;;;4968858;28;20037;-66
2023/03/17 02:33:02;;;;;;;7.30;2.65;;;;;;;;;;4971678;28;20018;-66
2023/03/17 02:35:28;;;;;;;7.03;2.47;;;;;;;;;;4969595;28;20023;-65
2023/03/17 02:37:53;;;;;;;8.45;2.92;;;;;;;;;;4968691;28;20471;-65
2023/03/17 02:40:18;;;;;;;6.90;2.67;;;;;;;;;;4970891;28;20023;-65
2023/03/17 02:42:43;;;;;;;9.37;2.60;;;;;;;;;;4971503;28;20174;-66
2023/03/17 02:45:10;;;;;;;8.05;2.90;;;;;;;;;;4968324;28;20054;-66
2023/03/17 02:47:35;;;;;;;8.65;2.83;;;;;;;;;;4968375;28;20023;-65
2023/03/17 02:50:01;;;;;;;8.43;2.78;;;;;;;;;;4968220;28;20030;-66
2023/03/17 02:52:26;;;;;;;8.83;2.80;;;;;;;;;;4968363;28;20022;-65
2023/03/17 02:54:51;;;;;;;7.95;2.63;;;;;;;;;;4969446;28;20042;-66
2023/03/17 02:57:16;;;;;;;6.60;2.47;;;;;;;;;;4969664;28;20507;-67
2023/03/17 02:59:42;;;;;;;8.77;2.80;;;;;;;;;;4968392;28;20034;-67
2023/03/17 03:02:07;;;;;;;7.25;2.92;;;;;;;;;;4969778;28;20537;-66
2023/03/17 03:04:32;;;;;;;7.50;2.70;;;;;;;;;;4969972;28;20019;-65
2023/03/17 03:06:58;;;;;;;7.53;2.97;;;;;;;;;;4967217;28;20379;-68
2023/03/17 03:09:24;;;;;;;8.55;2.50;;;;;;;;;;4970130;28;20033;-68
2023/03/17 03:11:49;;;;;;;9.90;3.10;;;;;;;;;;4970056;28;20022;-67
2023/03/17 03:14:15;;;;;;;8.27;2.83;;;;;;;;;;4970788;28;20447;-65
2023/03/17 03:16:40;;;;;;;6.70;2.53;;;;;;;;;;4968708;28;20074;-66
2023/03/17 03:19:05;;;;;;;13.13;3.20;;;;;;;;;;4969218;28;20027;-65
2023/03/17 03:21:31;;;;;;;8.35;2.80;;;;;;;;;;4974304;28;20111;-65
2023/03/17 03:23:56;;;;;;;7.83;3.10;;;;;;;;;;4975803;28;20030;-67
2023/03/17 03:26:21;;;;;;;7.05;2.88;;;;;;;;;;4973403;28;20463;-66
2023/03/17 03:28:46;;;;;;;10.52;3.10;;;;;;;;;;4974316;28;20443;-65
2023/03/17 03:31:12;;;;;;;9.48;3.28;;;;;;;;;;4971539;28;20029;-68
2023/03/17 03:33:37;;;;;;;7.78;2.53;;;;;;;;;;4974413;28;20050;-66
2023/03/17 03:36:03;;;;;;;6.97;2.83;;;;;;;;;;4972378;28;20022;-66
2023/03/17 03:38:28;;;;;;;8.07;2.73;;;;;;;;;;4973430;28;20026;-65
2023/03/17 03:40:53;;;;;;;6.73;2.53;;;;;;;;;;4977669;28;20084;-65
2023/03/17 03:43:19;;;;;;;8.10;3.10;;;;;;;;;;4974293;28;20473;-66
2023/03/17 03:45:45;;;;;;;8.48;3.00;;;;;;;;;;4969904;28;20031;-65
2023/03/17 03:48:10;;;;;;;15.25;3.45;;;;;;;;;;4971727;28;20046;-66
2023/03/17 03:50:35;;;;;;;8.25;2.92;;;;;;;;;;4972683;28;20114;-66
2023/03/17 03:53:01;;;;;;;8.07;2.97;;;;;;;;;;4971320;28;20503;-65
2023/03/17 03:55:26;;;;;;;10.07;3.23;;;;;;;;;;4969150;28;20029;-66
2023/03/17 03:57:51;;;;;;;8.37;3.23;;;;;;;;;;4972069;28;20118;-65
2023/03/17 04:00:16;;;;;;;9.20;3.10;;;;;;;;;;4969941;28;20439;-65
2023/03/17 04:02:43;;;;;;;7.20;2.75;;;;;;;;;;4972777;28;20031;-65
2023/03/17 04:05:09;;;;;;;7.18;2.60;;;;;;;;;;4971158;28;21876;-67
2023/03/17 04:07:35;;;;;;;8.50;3.13;;;;;;;;;;4970294;28;20031;-65
2023/03/17 04:10:00;;;;;;;7.75;3.05;;;;;;;;;;4973782;28;20097;-66
2023/03/17 04:12:25;;;;;;;8.63;2.97;;;;;;;;;;4973070;28;20030;-64
2023/03/17 04:14:50;;;;;;;8.67;3.03;;;;;;;;;;4970674;28;20479;-65
2023/03/17 04:17:15;;;;;;;9.75;3.10;;;;;;;;;;4971755;28;20031;-64
2023/03/17 04:19:41;;;;;;;7.10;2.60;;;;;;;;;;4973213;28;20054;-65
2023/03/17 04:22:07;;;;;;;8.20;3.03;;;;;;;;;;4969568;28;20463;-63
2023/03/17 04:24:33;;;;;;;;;;;;;;;;;;4970855;28;20019;-63
2023/03/17 04:26:58;;;;;;;9.18;2.90;;;;;;;;;;4968594;28;20329;-68
2023/03/17 04:29:24;;;;;;;8.83;3.10;;;;;;;;;;4969899;28;20031;-65
2023/03/17 04:31:49;;;;;;;9.93;2.92;;;;;;;;;;4967990;28;20112;-67
2023/03/17 04:34:16;;;;;;;6.70;2.63;;;;;;;;;;4969678;28;20073;-64
2023/03/17 04:36:42;;;;;;;8.80;3.17;;;;;;;;;;4970257;28;20347;-66
2023/03/17 04:39:07;;;;;;;9.43;3.00;;;;;;;;;;4968307;28;20030;-66
2023/03/17 04:41:33;;;;;;;10.00;3.20;;;;;;;;;;4969863;28;20018;-65
2023/03/17 04:43:58;;;;;;;9.82;3.00;;;;;;;;;;4970965;28;20019;-65
2023/03/17 04:46:23;;;;;;;8.80;2.93;;;;;;;;;;4973595;28;20026;-67
2023/03/17 04:48:48;;;;;;;9.23;3.10;;;;;;;;;;4967144;28;20049;-63
2023/03/17 04:51:13;;;;;;;8.70;3.10;;;;;;;;;;4968058;28;20026;-66
2023/03/17 04:53:39;;;;;;;9.95;3.13;;;;;;;;;;4972158;28;20019;-65
2023/03/17 04:56:04;;;;;;;9.10;2.90;;;;;;;;;;4972585;28;20034;-64
2023/03/17 04:58:29;;;;;;;8.52;3.33;;;;;;;;;;4973658;28;20502;-65
2023/03/17 05:00:54;;;;;;;8.53;3.17;;;;;;;;;;4974220;28;20029;-65
2023/03/17 05:03:20;;;;;;;8.37;3.40;;;;;;;;;;4976932;28;20026;-66
2023/03/17 05:05:46;;;;;;;7.47;2.97;;;;;;;;;;4976582;28;20399;-65
2023/03/17 05:08:11;;;;;;;9.20;3.00;;;;;;;;;;4977367;28;20150;-64
2023/03/17 05:10:36;;;;;;;8.97;3.00;;;;;;;;;;4971022;28;20023;-66
2023/03/17 05:13:01;;;;;;;8.93;2.70;;;;;;;;;;4963112;28;20526;-66
2023/03/17 05:15:26;;;;;;;8.35;3.10;;;;;;;;;;4968158;28;20026;-66
2023/03/17 05:17:52;;;;;;;8.93;2.90;;;;;;;;;;4968407;28;20019;-66
2023/03/17 05:20:17;;;;;;;9.25;2.95;;;;;;;;;;4969639;28;20105;-66
2023/03/17 05:22:42;;;;;;;7.65;3.03;;;;;;;;;;4967355;28;20038;-64
2023/03/17 05:25:07;;;;;;;9.40;2.90;;;;;;;;;;4968252;28;20030;-70
2023/03/17 05:27:32;;;;;;;10.10;3.53;;;;;;;;;;4970069;28;20107;-64
2023/03/17 05:29:57;;;;;;;9.63;2.92;;;;;;;;;;4972178;28;20462;-66
2023/03/17 05:32:23;;;;;;;7.78;2.90;;;;;;;;;;4968801;28;20057;-65
2023/03/17 05:34:49;;;;;;;7.82;3.05;;;;;;;;;;4968765;28;20364;-64
2023/03/17 05:37:14;;;;;;;10.20;3.28;;;;;;;;;;4973632;28;20062;-66
2023/03/17 05:39:39;;;;;;;10.18;2.95;;;;;;;;;;4974491;28;20120;-66
2023/03/17 05:42:05;;;;;;;8.90;3.20;;;;;;;;;;4981771;28;20039;-65
2023/03/17 05:44:30;;;;;;;9.98;2.92;;;;;;;;;;4985167;28;20061;-65
2023/03/17 05:46:58;;;;;;;7.45;3.00;;;;;;;;;;4980902;28;20061;-65
2023/03/17 05:49:23;;;;;;;8.40;3.28;;;;;;;;;;4969555;28;20023;-66
2023/03/17 05:51:49;;;;;;;8.10;2.80;;;;;;;;;;4967884;28;20037;-64
2023/03/17 05:54:14;;;;;;;8.53;2.83;;;;;;;;;;4966817;28;20490;-66
2023/03/17 05:56:40;;;;;;;9.43;3.10;;;;;;;;;;4969310;28;20113;-66
2023/03/17 05:59:05;;;;;;;6.97;2.72;;;;;;;;;;4967076;28;20482;-66
2023/03/17 06:01:30;;;;;;;8.68;2.88;;;;;;;;;;4964664;28;20364;-65
2023/03/17 06:03:56;;;;;;;8.93;2.95;;;;;;;;;;4970036;28;20066;-66
2023/03/17 06:06:21;;;;;;;10.10;3.03;;;;;;;;;;4968661;28;20022;-66
2023/03/17 06:08:46;;;;;;;8.30;3.00;;;;;;;;;;4970630;28;20038;-65
2023/03/17 06:11:11;;;;;;;6.97;2.70;;;;;;;;;;4968825;28;20033;-64
2023/03/17 06:13:37;;;;;;;7.33;2.50;;;;;;;;;;4971835;28;20022;-65
2023/03/17 06:16:02;;;;;;;7.87;2.87;;;;;;;;;;4972002;28;20538;-67
2023/03/17 06:18:27;;;;;;;10.33;2.93;;;;;;;;;;4972812;28;20128;-65
2023/03/17 06:20:53;;;;;;;7.68;2.58;;;;;;;;;;4972178;28;20027;-66
2023/03/17 06:23:18;;;;;;;8.05;2.88;;;;;;;;;;4972543;28;20074;-66
2023/03/17 06:25:43;;;;;;;10.50;2.97;;;;;;;;;;4971603;28;20033;-65
2023/03/17 06:28:09;;;;;;;9.67;3.03;;;;;;;;;;4964572;28;20050;-66
2023/03/17 06:30:35;;;;;;;6.60;3.05;;;;;;;;;;4972870;28;20049;-66
2023/03/17 06:33:00;;;;;;;9.15;3.05;;;;;;;;;;4973119;28;20106;-67
2023/03/17 06:35:25;;;;;;;8.32;2.92;;;;;;;;;;4974849;28;20023;-66
2023/03/17 06:37:50;;;;;;;9.32;3.08;;;;;;;;;;4971875;28;20065;-63
2023/03/17 06:40:16;;;;;;;8.73;3.03;;;;;;;;;;4967999;28;20527;-66
2023/03/17 06:42:41;;;;;;;9.00;3.10;;;;;;;;;;4957281;28;20094;-65
2023/03/17 06:45:08;;;;;;;9.48;2.97;;;;;;;;;;4969525;28;20548;-66
2023/03/17 06:47:34;;;;;;;9.68;2.80;;;;;;;;;;4967338;28;20479;-66
2023/03/17 06:49:59;;;;;;;7.10;2.75;;;;;;;;;;4965550;28;20038;-66
2023/03/17 06:52:25;;;;;;;8.63;3.10;;;;;;;;;;4967934;28;20035;-66
2023/03/17 06:54:50;;;;;;;7.32;2.83;;;;;;;;;;4967074;28;20418;-67
2023/03/17 06:57:16;;;;;;;10.75;3.20;;;;;;;;;;4968552;28;20038;-65
2023/03/17 06:59:41;;;;;;;8.30;2.95;;;;;;;;;;4968889;28;20031;-66
2023/03/17 07:02:06;;;;;;;6.80;2.97;;;;;;;;;;4967961;28;20027;-66
2023/03/17 07:04:31;;;;;;;8.75;2.80;;;;;;;;;;4969063;28;20688;-66
2023/03/17 07:06:57;;;;;;;7.77;2.80;;;;;;;;;;4966577;28;20031;-66
2023/03/17 07:09:22;;;;;;;7.55;2.47;;;;;;;;;;4967362;28;20505;-66
2023/03/17 07:11:47;;;;;;;7.13;2.77;;;;;;;;;;4975363;28;20057;-64
2023/03/17 07:14:12;;;;;;;9.27;2.70;;;;;;;;;;4975158;28;20046;-65
2023/03/17 07:16:37;;;;;;;9.50;3.10;;;;;;;;;;4973656;28;20430;-63
2023/03/17 07:19:03;;;;;;;9.20;2.70;;;;;;;;;;4973779;28;20050;-65
2023/03/17 07:21:28;;;;;;;9.43;2.75;;;;;;;;;;4972300;28;20488;-66
2023/03/17 07:23:53;;;;;;;12.20;3.25;;;;;;;;;;4972559;28;20035;-65
2023/03/17 07:26:19;;;;;;;8.47;2.77;;;;;;;;;;4964871;28;20398;-66
2023/03/17 07:28:44;;;;;;;6.53;2.37;;;;;;;;;;4966423;28;20030;-66
2023/03/17 07:31:12;;;;;;;6.38;2.45;;;;;;;;;;4964824;28;20621;-66
2023/03/17 07:33:38;;;;;;;14.30;2.97;;;;;;;;;;4969543;28;20019;-65
2023/03/17 07:36:05;;;;;;;7.20;2.60;;;;;;;;;;4966242;28;20033;-67
2023/03/17 07:38:31;;;;;;;7.47;2.38;;;;;;;;;;4958380;28;20498;-65
2023/03/17 07:40:56;;;;;;;6.03;2.40;;;;;;;;;;4962218;28;20062;-64
2023/03/17 07:43:21;;;;;;;7.77;2.80;;;;;;;;;;4964669;28;20023;-65
2023/03/17 07:45:46;;;;;;;8.77;2.97;;;;;;;;;;4963025;28;20114;-66
2023/03/17 07:48:11;;;;;;;7.07;2.60;;;;;;;;;;4965936;28;20019;-66
2023/03/17 07:50:37;;;;;;;8.50;2.60;;;;;;;;;;4966766;28;20031;-65
2023/03/17 07:53:02;;;;;;;7.77;2.63;;;;;;;;;;4967280;28;20027;-66
2023/03/17 07:55:31;;;;;;;8.13;2.63;;;;;;;;;;4966141;28;20026;-67
2023/03/17 07:57:56;;;;;;;8.38;2.85;;;;;;;;;;4965319;28;20039;-63
2023/03/17 08:00:22;;;;;;;9.25;2.70;;;;;;;;;;4970200;28;20027;-67
2023/03/17 08:02:47;;;;;;;8.57;2.72;;;;;;;;;;4969916;28;20050;-65
2023/03/17 08:05:13;;;;;;;7.00;2.50;;;;;;;;;;4967840;28;20022;-67
2023/03/17 08:07:38;;;;;;;6.57;2.50;;;;;;;;;;4971210;28;20022;-67
2023/03/17 08:10:04;;;;;;;7.78;2.53;;;;;;;;;;4970672;28;20589;-65
2023/03/17 08:12:29;;;;;;;9.07;2.80;;;;;;;;;;4971107;28;20026;-66
2023/03/17 08:14:54;;;;;;;7.07;2.73;;;;;;;;;;4971062;28;20081;-64
2023/03/17 08:17:20;;;;;;;9.97;2.60;;;;;;;;;;4968525;28;20423;-65
2023/03/17 08:19:45;;;;;;;7.67;2.47;;;;;;;;;;4964517;28;20478;-64
2023/03/17 08:22:10;;;;;;;8.20;2.60;;;;;;;;;;4972219;28;20117;-66
2023/03/17 08:24:35;;;;;;;7.82;2.60;;;;;;;;;;4970415;28;20041;-65
2023/03/17 08:27:01;;;;;;;9.18;2.30;;;;;;;;;;4972359;28;20058;-65
2023/03/17 08:29:27;;;;;;;6.93;2.53;;;;;;;;;;4970461;28;20030;-67
2023/03/17 08:31:52;;;;;;;8.25;2.88;;;;;;;;;;4971178;28;20026;-64
2023/03/17 08:34:18;;;;;;;8.27;2.45;;;;;;;;;;4970018;28;20414;-66
2023/03/17 08:36:43;;;;;;;9.20;2.50;;;;;;;;;;4971180;28;20019;-65
2023/03/17 08:39:09;;;;;;;9.90;2.95;;;;;;;;;;4971372;28;20050;-66
2023/03/17 08:41:35;;;;;;;8.93;2.63;;;;;;;;;;4971539;28;20031;-66
2023/03/17 08:44:00;;;;;;;7.47;2.70;;;;;;;;;;4972161;28;20134;-67
2023/03/17 08:46:27;;;;;;;8.20;2.83;;;;;;;;;;4970611;28;20550;-68
2023/03/17 08:48:53;;;;;;;;;;;;;;;;;;4970976;28;20123;-67
2023/03/17 08:51:18;;;;;;;11.38;3.20;;;;;;;;;;4969578;28;20009;-67
2023/03/17 08:53:43;;;;;;;14.65;2.58;;;;;;;;;;4971877;28;20422;-67
2023/03/17 08:56:09;;;;;;;6.80;2.28;;;;;;;;;;4971427;28;20045;-67
2023/03/17 08:58:35;;;;;;;8.00;2.90;;;;;;;;;;4962235;28;20062;-66
2023/03/17 09:01:01;;;;;;;6.65;2.58;;;;;;;;;;4972369;28;20069;-67
2023/03/17 09:03:26;;;;;;;8.45;2.97;;;;;;;;;;4973666;28;20470;-66
2023/03/17 09:05:52;;;;;;;8.20;2.70;;;;;;;;;;4974623;28;20030;-65
2023/03/17 09:08:17;;;;;;;6.57;2.58;;;;;;;;;;4972098;28;20019;-67
2023/03/17 09:10:42;;;;;;;10.30;2.80;;;;;;;;;;4973594;28;20470;-66
2023/03/17 09:13:09;;;;;;;7.77;2.60;;;;;;;;;;4973562;28;20451;-66
2023/03/17 09:15:34;;;;;;;6.93;2.85;;;;;;;;;;4972885;28;20031;-66
2023/03/17 09:18:00;;;;;;;7.20;2.93;;;;;;;;;;4971671;28;20029;-66
2023/03/17 09:20:25;;;;;;;6.57;2.60;;;;;;;;;;4973051;28;20125;-66
2023/03/17 09:22:51;;;;;;;10.35;2.70;;;;;;;;;;4974679;28;20042;-65
2023/03/17 09:25:17;;;;;;;8.88;2.40;;;;;;;;;;4973641;28;20029;-64
2023/03/17 09:27:42;;;;;;;8.50;2.70;;;;;;;;;;4974155;28;20022;-64
2023/03/17 09:30:09;;;;;;;8.23;2.90;;;;;;;;;;4972753;28;20027;-67
2023/03/17 09:32:34;;;;;;;7.18;2.40;;;;;;;;;;4973337;28;20085;-66
2023/03/17 09:35:00;;;;;;;7.70;2.77;;;;;;;;;;4972699;28;20018;-66
2023/03/17 09:37:26;;;;;;;5.55;2.35;;;;;;;;;;4973910;28;20407;-66
2023/03/17 09:39:51;;;;;;;6.43;2.50;;;;;;;;;;4973594;28;20060;-67
2023/03/17 09:42:17;;;;;;;7.25;2.40;;;;;;;;;;4973084;28;20530;-65
2023/03/17 09:44:55;;;;;;;7.43;2.30;;;;;;;;;;4974259;28;20026;-67
2023/03/17 09:47:32;;;;;;;6.65;2.50;;;;;;;;;;4958135;29;20011;-65
2023/03/17 09:49:58;;;;;;;7.22;2.10;;;;;;;;;;4961603;28;20031;-66
2023/03/17 09:52:26;;;;;;;10.30;2.80;;;;;;;;;;4972493;28;20022;-66
2023/03/17 09:54:51;;;;;;;7.65;2.20;;;;;;;;;;4972357;28;20029;-68
2023/03/17 09:57:21;;;;;;;6.35;2.30;;;;;;;;;;4973072;28;20019;-65
2023/03/17 09:59:53;;;;;;;7.60;2.20;;;;;;;;;;4973149;28;20022;-65
2023/03/17 10:02:19;;;;;;;;;;;;;;;;;;4970675;28;20101;-66
2023/03/17 10:04:45;;;;;;;11.37;2.63;;;;;;;;;;4976984;28;20053;-64
2023/03/17 10:07:12;;;;;;;8.75;2.45;;;;;;;;;;4972107;28;20042;-66
2023/03/17 10:09:55;;;;;;;10.10;2.55;;;;;;;;;;4972563;28;20026;-67
2023/03/17 10:12:28;;;;;;;6.57;2.13;;;;;;;;;;4973836;28;20033;-65
2023/03/17 10:14:58;;;;;;;6.85;2.53;;;;;;;;;;4973555;28;20026;-67
2023/03/17 10:17:31;;;;;;;9.90;2.97;;;;;;;;;;4972405;28;20073;-65
2023/03/17 10:19:58;;;;;;;8.75;2.60;;;;;;;;;;4972020;28;20023;-65
2023/03/17 10:22:27;;;;;;;7.30;2.50;;;;;;;;;;4970810;28;20082;-66
2023/03/17 10:24:56;;;;;;;6.50;2.20;;;;;;;;;;4971313;28;20077;-66
2023/03/17 10:27:21;;;;;;;10.45;2.58;;;;;;;;;;4972134;28;20022;-67
2023/03/17 10:29:47;;;;;;;9.98;2.50;;;;;;;;;;4971397;28;20467;-65
2023/03/17 10:32:12;;;;;;;8.48;2.92;;;;;;;;;;4971097;28;20601;-66
2023/03/17 10:34:38;;;;;;;5.97;2.35;;;;;;;;;;4971029;28;20023;-63
2023/03/17 10:37:05;;;;;;;7.57;2.50;;;;;;;;;;4987310;28;20019;-64
2023/03/17 10:39:30;;;;;;;6.47;2.40;;;;;;;;;;4971463;28;20390;-65
2023/03/17 10:41:57;;;;;;;9.20;2.53;;;;;;;;;;4964022;28;20033;-65
2023/03/17 10:44:41;;;;;;;6.65;2.58;;;;;;;;;;4972545;28;20455;-67
2023/03/17 10:47:19;;;;;;;8.25;2.42;;;;;;;;;;4972652;28;20026;-66
2023/03/17 10:49:45;;;;;;;9.50;2.90;;;;;;;;;;4975195;28;20053;-66
2023/03/17 10:52:17;;;;;;;7.53;2.50;;;;;;;;;;4978540;28;20445;-66
2023/03/17 10:54:45;;;;;;;;;;;;;;;;;;4975746;28;20509;-65
2023/03/17 10:57:12;;;;;;;7.60;2.20;;;;;;;;;;4974197;28;20081;-66
2023/03/17 10:59:42;;;;;;;6.75;2.42;;;;;;;;;;4974414;28;20022;-65
2023/03/17 11:02:19;;;;;;;5.72;2.42;;;;;;;;;;4972832;28;20439;-65
2023/03/17 11:04:44;;;;;;;6.30;2.67;;;;;;;;;;4958557;28;20607;-67
2023/03/17 11:07:16;;;;;;;7.15;2.53;;;;;;;;;;4973269;28;20045;-66
2023/03/17 11:09:41;;;;;;;;;;;;;;;;;;4971171;28;20479;-66
2023/03/17 11:12:19;;;;;;;5.25;2.15;;;;;;;;;;4971283;28;20416;-66
2023/03/17 11:14:45;;;;;;;;;;;;;;;;;;4972604;28;20031;-68
2023/03/17 11:17:35;;;;;;;6.03;2.10;;;;;;;;;;4966161;28;19909;-66
2023/03/17 11:20:03;;;;;;;10.93;2.20;;;;;;;;;;4969701;28;20035;-66
2023/03/17 11:22:34;;;;;;;6.85;2.67;;;;;;;;;;4972718;28;20450;-65
2023/03/17 11:25:09;;;;;;;6.90;2.58;;;;;;;;;;4973365;28;20062;-66
2023/03/17 11:27:37;;;;;;;7.90;2.03;;;;;;;;;;4972951;28;20054;-66
2023/03/17 11:30:05;;;;;;;5.97;2.25;;;;;;;;;;4971602;28;20106;-64
2023/03/17 11:32:37;;;;;;;8.38;2.30;;;;;;;;;;4973859;28;20025;-66
2023/03/17 11:35:26;;;;;;;8.95;2.65;;;;;;;;;;4974900;28;20018;-67
2023/03/17 11:37:58;;;;;;;7.57;2.40;;;;;;;;;;4973976;28;20027;-65
2023/03/17 11:40:46;;;;;;;8.35;2.85;;;;;;;;;;4971416;28;20390;-66
2023/03/17 11:43:19;;;;;;;8.32;2.40;;;;;;;;;;4968379;28;20065;-67
2023/03/17 11:45:44;;;;;;;9.93;2.72;;;;;;;;;;4973944;28;20025;-66
2023/03/17 11:48:21;;;;;;;7.88;2.72;;;;;;;;;;4971555;28;20026;-67
2023/03/17 11:50:54;;;;;;;6.07;2.40;;;;;;;;;;4969422;28;20037;-66
2023/03/17 11:53:24;;;;;;;7.72;2.78;;;;;;;;;;4970562;28;20030;-66
2023/03/17 11:55:52;;;;;;;6.57;2.45;;;;;;;;;;4968941;28;20378;-66
2023/03/17 11:58:35;;;;;;;6.00;2.25;;;;;;;;;;4971343;28;20019;-66
2023/03/17 12:01:02;;;;;;;6.97;2.40;;;;;;;;;;4970503;28;20081;-68
2023/03/17 12:03:31;;;;;;;5.80;2.25;;;;;;;;;;4970172;28;20042;-68
2023/03/17 12:06:00;;;;;;;6.65;2.47;;;;;;;;;;4968282;28;20437;-65
2023/03/17 12:08:36;;;;;;;7.30;2.70;;;;;;;;;;4962744;28;20160;-65
2023/03/17 12:11:04;;;;;;;8.10;2.53;;;;;;;;;;4971990;28;20398;-66
2023/03/17 12:13:38;;;;;;;10.52;2.50;;;;;;;;;;4970282;28;20062;-67
2023/03/17 12:16:24;;;;;;;6.10;2.60;;;;;;;;;;4967247;28;20098;-66
2023/03/17 12:18:56;;;;;;;8.88;2.83;;;;;;;;;;4967958;28;20062;-67
2023/03/17 12:21:21;;;;;;;;;;;;;;;;;;4967605;28;20038;-66
2023/03/17 12:23:48;;;;;;;6.90;2.88;;;;;;;;;;4968057;28;19921;-65
2023/03/17 12:26:13;;;;;;;;;;;;;;;;;;4966543;28;20034;-67
2023/03/17 12:28:51;;;;;;;7.68;2.92;;;;;;;;;;4968525;28;20493;-65
2023/03/17 12:31:19;;;;;;;8.80;2.63;;;;;;;;;;4969585;28;20027;-66
2023/03/17 12:34:04;;;;;;;6.65;2.70;;;;;;;;;;4967651;28;20050;-66
2023/03/17 12:36:29;;;;;;;6.47;2.67;;;;;;;;;;4967442;28;20026;-65
2023/03/17 12:39:00;;;;;;;6.63;2.90;;;;;;;;;;4969983;28;20029;-64
2023/03/17 12:41:35;;;;;;;9.48;3.17;;;;;;;;;;4968120;28;20045;-65
2023/03/17 12:44:00;;;;;;;7.20;3.10;;;;;;;;;;4983010;28;20030;-66
2023/03/17 12:46:37;;;;;;;6.25;2.75;;;;;;;;;;4967887;28;20101;-65
2023/03/17 12:49:21;;;;;;;8.48;3.38;;;;;;;;;;4967555;28;20058;-64
2023/03/17 12:51:49;;;;;;;9.88;3.50;;;;;;;;;;4966566;28;20102;-66
2023/03/17 12:54:26;;;;;;;8.32;3.42;;;;;;;;;;4981403;28;20027;-68
2023/03/17 12:56:52;;;;;;;9.02;3.30;;;;;;;;;;4967069;28;20054;-67
2023/03/17 12:59:19;;;;;;;8.35;3.17;;;;;;;;;;4963718;28;20042;-65
2023/03/17 13:01:53;;;;;;;7.38;3.03;;;;;;;;;;4966296;28;20085;-65
2023/03/17 13:04:25;;;;;;;8.25;3.38;;;;;;;;;;4979811;28;20030;-65
2023/03/17 13:07:11;;;;;;;8.18;3.38;;;;;;;;;;4968375;28;20026;-63
2023/03/17 13:09:47;;;;;;;8.82;3.33;;;;;;;;;;4970070;28;20030;-65
2023/03/17 13:12:31;;;;;;;8.13;3.20;;;;;;;;;;4969342;28;20027;-66
2023/03/17 13:14:56;;;;;;;8.75;3.38;;;;;;;;;;4968767;28;20026;-67
2023/03/17 13:17:23;;;;;;;8.73;3.00;;;;;;;;;;4969098;28;20025;-65
2023/03/17 13:19:54;;;;;;;10.38;3.85;;;;;;;;;;4969625;28;20114;-66
2023/03/17 13:22:20;;;;;;;9.80;3.50;;;;;;;;;;4968804;28;20026;-66
2023/03/17 13:24:47;;;;;;;8.90;3.85;;;;;;;;;;4981753;28;20659;-66
2023/03/17 13:27:30;;;;;;;7.72;3.65;;;;;;;;;;4970614;28;20034;-67
2023/03/17 13:29:56;;;;;;;7.63;3.13;;;;;;;;;;4970488;28;20034;-67
2023/03/17 13:32:24;;;;;;;8.98;3.67;;;;;;;;;;4972217;28;20023;-66
2023/03/17 13:34:51;;;;;;;8.82;3.53;;;;;;;;;;4978435;28;20014;-67
2023/03/17 13:37:25;;;;;;;8.13;3.85;;;;;;;;;;4972749;28;20018;-66
2023/03/17 13:40:26;;;;;;;8.80;3.72;;;;;;;;;;4972599;28;20090;-66
2023/03/17 13:43:14;;;;;;;9.00;3.92;;;;;;;;;;4929061;29;20051;-65
2023/03/17 13:45:40;;;;;;;10.02;4.00;;;;;;;;;;4964947;28;20031;-66
2023/03/17 13:48:26;;;;;;;11.98;3.85;;;;;;;;;;4982550;28;20061;-65
2023/03/17 13:51:10;;;;;;;8.98;3.85;;;;;;;;;;4976828;28;20098;-67
2023/03/17 13:53:40;;;;;;;12.77;4.60;;;;;;;;;;4973561;28;20027;-66
2023/03/17 13:56:13;;;;;;;9.48;4.28;;;;;;;;;;4970549;28;20038;-67
2023/03/17 13:58:50;;;;;;;8.55;4.40;;;;;;;;;;4970276;28;20034;-67
2023/03/17 14:01:15;;;;;;;8.73;3.97;;;;;;;;;;4965861;28;20393;-68
2023/03/17 14:03:46;;;;;;;10.45;4.60;;;;;;;;;;4969586;28;20019;-67
2023/03/17 14:06:13;;;;;;;9.32;4.60;;;;;;;;;;4968232;28;20026;-66
2023/03/17 14:08:43;;;;;;;10.35;4.15;;;;;;;;;;4967230;28;20085;-66
2023/03/17 14:11:27;;;;;;;10.75;4.20;;;;;;;;;;4966975;28;20053;-64
2023/03/17 14:13:55;;;;;;;7.97;4.05;;;;;;;;;;4967308;28;20026;-67
2023/03/17 14:16:26;;;;;;;10.95;4.38;;;;;;;;;;4970999;28;20031;-68
2023/03/17 14:18:57;;;;;;;7.95;3.65;;;;;;;;;;4967033;28;20062;-66
2023/03/17 14:21:24;;;;;;;9.93;4.00;;;;;;;;;;4965751;28;20029;-66
2023/03/17 14:23:49;;;;;;;;;;;;;;;;;;4969283;28;20027;-65
2023/03/17 14:26:14;;;;;;;8.85;3.80;;;;;;;;;;4967278;28;19925;-65
2023/03/17 14:28:39;;;;;;;11.37;4.17;;;;;;;;;;4970149;28;20435;-66
2023/03/17 14:31:05;;;;;;;9.27;4.33;;;;;;;;;;4971104;28;20030;-66
2023/03/17 14:33:33;;;;;;;9.85;4.47;;;;;;;;;;4971060;28;20492;-67
2023/03/17 14:35:59;;;;;;;9.60;4.10;;;;;;;;;;4964961;28;20399;-67
2023/03/17 14:38:29;;;;;;;11.23;3.10;;;;;;;;;;4967728;28;20029;-70
2023/03/17 14:40:59;;;;;;;11.73;3.80;;;;;;;;;;4964181;28;20026;-69
2023/03/17 14:43:25;;;;;;;9.40;4.15;;;;;;;;;;4967504;28;20062;-66
2023/03/17 14:45:51;;;;;;;7.90;3.90;;;;;;;;;;4968978;28;20047;-67
2023/03/17 14:48:16;;;;;;;;;;;;;;;;;;4967446;28;20383;-65